createdAt,value
2022-10-01T00:02:06.420Z,91.37
2022-10-01T00:04:36.287Z,91.39
2022-10-01T00:07:05.010Z,91.58
2022-10-01T00:09:32.349Z,91.61
2022-10-01T00:11:59.881Z,91.03
2022-10-01T00:14:27.570Z,90.50
2022-10-01T00:16:54.969Z,90.44
2022-10-01T00:19:22.840Z,90.56
2022-10-01T00:21:49.757Z,90.80
2022-10-01T00:24:16.371Z,90.85
2022-10-01T00:26:45.500Z,90.96
2022-10-01T00:29:14.483Z,91.85
2022-10-01T00:31:41.231Z,91.42
2022-10-01T00:34:07.953Z,91.99
2022-10-01T00:36:35.179Z,91.36
2022-10-01T00:39:02.362Z,91.33
2022-10-01T00:41:32.117Z,91.09
2022-10-01T00:44:23.283Z,91.30
2022-10-01T00:46:50.347Z,90.89
2022-10-01T00:49:21.077Z,90.88
2022-10-01T00:51:54.076Z,90.69
2022-10-01T00:54:26.509Z,91.01
2022-10-01T00:56:56.624Z,91.35
2022-10-01T00:59:23.310Z,91.55
2022-10-01T01:01:49.924Z,91.60
2022-10-01T01:04:17.038Z,91.80
2022-10-01T01:06:55.917Z,92.11
2022-10-01T01:09:30.845Z,91.63
2022-10-01T01:12:22.020Z,91.22
2022-10-01T01:15:19.631Z,91.66
2022-10-01T01:18:04.388Z,91.88
2022-10-01T01:20:46.227Z,91.84
2022-10-01T01:23:16.066Z,92.01
2022-10-01T01:25:57.923Z,91.86
2022-10-01T01:28:31.666Z,91.51
2022-10-01T01:31:04.940Z,91.72
2022-10-01T01:33:35.761Z,91.26
2022-10-01T01:36:07.894Z,91.50
2022-10-01T01:38:41.229Z,91.88
2022-10-01T01:41:10.312Z,91.99
2022-10-01T01:43:41.137Z,91.56
2022-10-01T01:46:11.729Z,91.76
2022-10-01T01:48:41.885Z,92.14
2022-10-01T01:51:24.034Z,92.13
2022-10-01T01:53:51.201Z,92.06
2022-10-01T01:56:18.262Z,92.06
2022-10-01T01:58:46.198Z,91.85
2022-10-01T02:01:33.084Z,91.89
2022-10-01T02:04:01.889Z,91.56
2022-10-01T02:06:47.817Z,91.78
2022-10-01T02:09:53.200Z,92.12
2022-10-01T02:12:35.712Z,91.91
2022-10-01T02:15:14.396Z,91.53
2022-10-01T02:17:54.159Z,92.17
2022-10-01T02:20:31.266Z,91.62
2022-10-01T02:23:03.730Z,92.07
2022-10-01T02:25:37.015Z,92.07
2022-10-01T02:28:21.122Z,92.49
2022-10-01T02:30:49.810Z,92.07
2022-10-01T02:33:21.928Z,92.09
2022-10-01T02:35:52.332Z,92.21
2022-10-01T02:38:22.921Z,92.66
2022-10-01T02:40:54.020Z,92.93
2022-10-01T02:43:26.707Z,92.79
2022-10-01T02:46:00.547Z,92.99
2022-10-01T02:48:27.968Z,92.31
2022-10-01T02:51:06.944Z,92.37
2022-10-01T02:53:44.303Z,92.42
2022-10-01T02:56:15.014Z,92.15
2022-10-01T02:58:42.037Z,92.36
2022-10-01T03:01:08.642Z,92.49
2022-10-01T03:03:35.356Z,92.85
2022-10-01T03:06:01.997Z,92.26
2022-10-01T03:08:28.567Z,92.53
2022-10-01T03:10:55.183Z,92.95
2022-10-01T03:13:23.495Z,92.50
2022-10-01T03:15:50.332Z,93.07
2022-10-01T03:18:16.989Z,92.49
2022-10-01T03:20:43.630Z,92.91
2022-10-01T03:23:10.248Z,92.32
2022-10-01T03:25:37.418Z,92.65
2022-10-01T03:28:04.091Z,92.54
2022-10-01T03:30:30.790Z,92.00
2022-10-01T03:32:57.409Z,91.95
2022-10-01T03:35:24.953Z,92.32
2022-10-01T03:37:51.576Z,91.72
2022-10-01T03:40:18.301Z,91.67
2022-10-01T03:42:44.822Z,91.83
2022-10-01T03:45:11.427Z,91.53
2022-10-01T03:47:39.489Z,91.70
2022-10-01T03:50:06.907Z,91.65
2022-10-01T03:52:33.570Z,91.30
2022-10-01T03:55:01.184Z,91.29
2022-10-01T03:57:27.780Z,91.83
2022-10-01T03:59:54.420Z,91.77
2022-10-01T04:02:22.125Z,91.56
2022-10-01T04:04:48.845Z,91.92
2022-10-01T04:07:15.485Z,92.04
2022-10-01T04:09:42.207Z,92.13
2022-10-01T04:12:09.635Z,92.23
2022-10-01T04:14:36.210Z,91.79
2022-10-01T04:17:02.987Z,92.09
2022-10-01T04:19:29.636Z,92.39
2022-10-01T04:21:56.603Z,92.24
2022-10-01T04:24:23.295Z,91.96
2022-10-01T04:26:51.233Z,92.28
2022-10-01T04:29:17.811Z,92.02
2022-10-01T04:31:44.510Z,92.06
2022-10-01T04:34:11.107Z,91.66
2022-10-01T04:36:37.695Z,91.67
2022-10-01T04:39:04.485Z,91.26
2022-10-01T04:41:32.187Z,91.25
2022-10-01T04:44:00.088Z,91.20
2022-10-01T04:46:28.386Z,91.07
2022-10-01T04:48:55.089Z,91.06
2022-10-01T04:51:21.854Z,90.65
2022-10-01T04:53:48.664Z,90.85
2022-10-01T04:56:15.272Z,90.40
2022-10-01T04:58:41.950Z,90.21
2022-10-01T05:01:08.792Z,90.16
2022-10-01T05:03:35.841Z,89.93
2022-10-01T05:06:02.470Z,89.99
2022-10-01T05:08:29.462Z,89.77
2022-10-01T05:10:58.606Z,89.26
2022-10-01T05:13:31.947Z,89.14
2022-10-01T05:15:59.376Z,88.54
2022-10-01T05:18:26.022Z,87.75
2022-10-01T05:20:52.676Z,87.75
2022-10-01T05:23:19.247Z,87.42
2022-10-01T05:25:47.019Z,87.09
2022-10-01T05:28:17.209Z,86.42
2022-10-01T05:30:47.880Z,86.15
2022-10-01T05:33:14.539Z,85.19
2022-10-01T05:35:41.615Z,84.95
2022-10-01T05:38:08.189Z,84.93
2022-10-01T05:40:34.901Z,84.81
2022-10-01T05:43:03.179Z,85.06
2022-10-01T05:45:33.950Z,85.27
2022-10-01T05:48:03.066Z,84.84
2022-10-01T05:50:31.951Z,85.00
2022-10-01T05:52:59.429Z,84.81
2022-10-01T05:55:26.686Z,84.25
2022-10-01T05:58:01.378Z,84.90
2022-10-01T06:00:29.616Z,84.42
2022-10-01T06:03:01.171Z,85.08
2022-10-01T06:05:29.736Z,84.90
2022-10-01T06:07:56.571Z,85.09
2022-10-01T06:10:23.737Z,85.13
2022-10-01T06:12:50.613Z,85.46
2022-10-01T06:15:18.353Z,85.66
2022-10-01T06:17:45.412Z,85.97
2022-10-01T06:20:17.572Z,85.93
2022-10-01T06:22:44.906Z,85.44
2022-10-01T06:25:13.431Z,85.99
2022-10-01T06:27:40.231Z,86.15
2022-10-01T06:30:07.984Z,86.00
2022-10-01T06:32:35.263Z,85.86
2022-10-01T06:35:03.006Z,86.33
2022-10-01T06:37:29.840Z,86.11
2022-10-01T06:39:56.559Z,85.93
2022-10-01T06:42:23.317Z,85.80
2022-10-01T06:44:49.897Z,86.00
2022-10-01T06:47:16.426Z,86.15
2022-10-01T06:49:47.323Z,86.80
2022-10-01T06:52:32.876Z,86.18
2022-10-01T06:55:01.485Z,86.09
2022-10-01T06:57:29.174Z,86.56
2022-10-01T06:59:55.886Z,86.10
2022-10-01T07:02:27.981Z,86.09
2022-10-01T07:05:01.634Z,85.84
2022-10-01T07:07:32.830Z,85.40
2022-10-01T07:09:59.416Z,84.67
2022-10-01T07:12:26.502Z,84.97
2022-10-01T07:14:53.912Z,85.34
2022-10-01T07:17:21.285Z,83.62
2022-10-01T07:19:47.922Z,83.13
2022-10-01T07:22:14.747Z,82.94
2022-10-01T07:24:41.324Z,82.27
2022-10-01T07:27:07.981Z,82.02
2022-10-01T07:29:34.993Z,83.70
2022-10-01T07:32:02.116Z,83.31
2022-10-01T07:34:31.230Z,82.66
2022-10-01T07:36:58.045Z,83.03
2022-10-01T07:39:24.705Z,82.12
2022-10-01T07:41:51.903Z,82.33
2022-10-01T07:44:19.365Z,81.62
2022-10-01T07:46:47.265Z,82.67
2022-10-01T07:49:14.600Z,82.07
2022-10-01T07:51:43.627Z,81.41
2022-10-01T07:54:10.566Z,80.72
2022-10-01T07:56:37.433Z,79.99
2022-10-01T07:59:05.012Z,79.10
2022-10-01T08:01:32.469Z,79.54
2022-10-01T08:03:59.511Z,77.55
2022-10-01T08:06:26.338Z,77.12
2022-10-01T08:08:53.174Z,76.76
2022-10-01T08:11:19.800Z,78.22
2022-10-01T08:13:46.536Z,77.41
2022-10-01T08:16:13.967Z,76.49
2022-10-01T08:18:40.780Z,75.48
2022-10-01T08:21:08.014Z,76.60
2022-10-01T08:23:35.132Z,76.15
2022-10-01T08:26:07.577Z,76.62
2022-10-01T08:28:35.419Z,75.43
2022-10-01T08:31:10.023Z,75.48
2022-10-01T08:33:38.547Z,73.61
2022-10-01T08:36:09.989Z,74.81
2022-10-01T08:38:37.574Z,75.42
2022-10-01T08:41:23.363Z,75.88
2022-10-01T08:43:51.725Z,77.68
2022-10-01T08:46:21.158Z,77.48
2022-10-01T08:49:17.912Z,78.07
2022-10-01T08:52:10.430Z,76.79
2022-10-01T08:54:46.904Z,75.81
2022-10-01T08:57:21.273Z,75.09
2022-10-01T08:59:58.293Z,74.05
2022-10-01T09:02:27.816Z,72.42
2022-10-01T09:05:02.712Z,71.65
2022-10-01T09:07:40.596Z,70.68
2022-10-01T09:10:26.067Z,70.47
2022-10-01T09:13:10.851Z,70.41
2022-10-01T09:15:53.373Z,72.18
2022-10-01T09:18:33.296Z,69.86
2022-10-01T09:21:12.626Z,69.61
2022-10-01T09:24:03.500Z,70.43
2022-10-01T09:26:31.489Z,70.96
2022-10-01T09:29:01.657Z,69.87
2022-10-01T09:31:41.554Z,69.39
2022-10-01T09:34:33.780Z,69.54
2022-10-01T09:37:39.615Z,68.62
2022-10-01T09:40:34.892Z,71.02
2022-10-01T09:43:08.232Z,70.36
2022-10-01T09:45:37.087Z,68.98
2022-10-01T09:48:30.494Z,69.94
2022-10-01T09:51:03.581Z,70.00
2022-10-01T09:53:41.292Z,69.40
2022-10-01T09:56:17.445Z,67.94
2022-10-01T09:58:53.063Z,68.27
2022-10-01T10:01:51.482Z,68.31
2022-10-01T10:04:21.055Z,68.84
2022-10-01T10:06:48.224Z,68.26
2022-10-01T10:09:20.143Z,68.79
2022-10-01T10:11:46.955Z,68.34
2022-10-01T10:14:29.811Z,69.77
2022-10-01T10:16:57.478Z,68.19
2022-10-01T10:19:27.921Z,68.10
2022-10-01T10:21:59.746Z,68.17
2022-10-01T10:24:34.719Z,68.40
2022-10-01T10:27:04.108Z,68.45
2022-10-01T10:29:36.029Z,66.94
2022-10-01T10:32:11.822Z,66.94
2022-10-01T10:34:42.534Z,67.12
2022-10-01T10:37:15.626Z,68.05
2022-10-01T10:39:46.704Z,68.54
2022-10-01T10:42:18.957Z,67.82
2022-10-01T10:44:49.366Z,66.41
2022-10-01T10:47:19.088Z,66.87
2022-10-01T10:49:58.981Z,67.24
2022-10-01T10:52:36.340Z,68.29
2022-10-01T10:55:22.364Z,71.36
2022-10-01T10:57:50.866Z,72.78
2022-10-01T11:00:25.658Z,72.45
2022-10-01T11:03:01.594Z,72.67
2022-10-01T11:05:32.802Z,68.95
2022-10-01T11:08:08.679Z,69.04
2022-10-01T11:11:10.606Z,68.88
2022-10-01T11:14:00.617Z,67.27
2022-10-01T11:16:27.187Z,68.04
2022-10-01T11:19:31.531Z,67.94
2022-10-01T11:22:35.567Z,67.43
2022-10-01T11:25:26.868Z,68.54
2022-10-01T11:27:59.584Z,69.67
2022-10-01T11:30:33.781Z,69.58
2022-10-01T11:33:21.562Z,70.36
2022-10-01T11:36:04.580Z,72.54
2022-10-01T11:38:47.723Z,71.48
2022-10-01T11:41:29.981Z,72.88
2022-10-01T11:43:59.312Z,70.81
2022-10-01T11:46:33.672Z,70.63
2022-10-01T11:49:29.082Z,70.68
2022-10-01T11:52:13.984Z,71.41
2022-10-01T11:54:56.476Z,70.28
2022-10-01T11:57:43.191Z,71.94
2022-10-01T12:00:13.898Z,72.47
2022-10-01T12:02:40.365Z,73.74
2022-10-01T12:05:15.348Z,73.76
2022-10-01T12:08:14.335Z,73.21
2022-10-01T12:10:41.865Z,75.98
2022-10-01T12:13:33.282Z,75.21
2022-10-01T12:16:16.278Z,77.93
2022-10-01T12:18:55.862Z,79.89
2022-10-01T12:21:27.939Z,80.90
2022-10-01T12:24:02.887Z,80.71
2022-10-01T12:26:34.726Z,80.88
2022-10-01T12:29:14.400Z,81.33
2022-10-01T12:31:56.192Z,81.94
2022-10-01T12:34:41.522Z,84.24
2022-10-01T12:37:21.863Z,83.94
2022-10-01T12:39:56.693Z,83.45
2022-10-01T12:42:49.349Z,83.84
2022-10-01T12:45:28.433Z,85.13
2022-10-01T12:48:16.478Z,84.10
2022-10-01T12:51:01.713Z,83.84
2022-10-01T12:53:58.436Z,84.42
2022-10-01T12:56:37.054Z,83.43
2022-10-01T12:59:30.911Z,82.87
2022-10-01T13:02:03.536Z,83.24
2022-10-01T13:05:17.920Z,83.35
2022-10-01T13:08:01.237Z,83.58
2022-10-01T13:10:52.960Z,83.92
2022-10-01T13:13:25.345Z,82.79
2022-10-01T13:16:33.941Z,83.09
2022-10-01T13:19:15.981Z,83.64
2022-10-01T13:21:42.578Z,84.15
2022-10-01T13:24:18.527Z,82.15
2022-10-01T13:26:56.120Z,82.15
2022-10-01T13:29:47.957Z,83.38
2022-10-01T13:32:31.397Z,83.20
2022-10-01T13:34:59.969Z,83.48
2022-10-01T13:37:38.884Z,84.37
2022-10-01T13:40:32.463Z,83.32
2022-10-01T13:43:16.994Z,82.78
2022-10-01T13:45:46.429Z,81.19
2022-10-01T13:48:23.568Z,82.27
2022-10-01T13:51:09.249Z,82.10
2022-10-01T13:53:42.138Z,82.68
2022-10-01T13:56:15.444Z,83.31
2022-10-01T13:58:44.373Z,85.26
2022-10-01T14:01:22.893Z,85.93
2022-10-01T14:03:57.479Z,85.15
2022-10-01T14:06:36.829Z,85.59
2022-10-01T14:09:13.387Z,85.49
2022-10-01T14:12:03.667Z,85.91
2022-10-01T14:14:57.837Z,85.79
2022-10-01T14:17:28.274Z,85.78
2022-10-01T14:19:55.124Z,85.85
2022-10-01T14:22:59.563Z,86.69
2022-10-01T14:25:36.209Z,86.87
2022-10-01T14:28:27.159Z,86.78
2022-10-01T14:31:31.802Z,87.48
2022-10-01T14:34:23.510Z,87.82
2022-10-01T14:36:53.730Z,87.35
2022-10-01T14:39:26.618Z,87.50
2022-10-01T14:41:55.558Z,87.80
2022-10-01T14:44:31.989Z,89.63
2022-10-01T14:46:59.991Z,89.16
2022-10-01T14:49:31.856Z,88.50
2022-10-01T14:52:05.726Z,89.50
2022-10-01T14:54:47.550Z,89.06
2022-10-01T14:57:24.422Z,89.34
2022-10-01T14:59:51.389Z,90.03
2022-10-01T15:02:21.782Z,90.71
2022-10-01T15:04:51.250Z,90.64
2022-10-01T15:07:18.860Z,89.76
2022-10-01T15:09:46.822Z,88.15
2022-10-01T15:12:16.687Z,88.94
2022-10-01T15:14:44.223Z,89.39
2022-10-01T15:17:23.855Z,89.29
2022-10-01T15:19:53.352Z,89.30
2022-10-01T15:22:30.179Z,90.39
2022-10-01T15:25:01.671Z,90.80
2022-10-01T15:27:28.970Z,91.07
2022-10-01T15:29:58.937Z,90.57
2022-10-01T15:32:28.274Z,91.47
2022-10-01T15:34:57.998Z,91.01
2022-10-01T15:37:36.706Z,91.29
2022-10-01T15:40:08.155Z,90.46
2022-10-01T15:42:36.030Z,90.30
2022-10-01T15:45:08.608Z,91.04
2022-10-01T15:47:39.660Z,90.15
2022-10-01T15:50:18.439Z,90.69
2022-10-01T15:52:54.335Z,91.20
2022-10-01T15:55:23.162Z,91.32
2022-10-01T15:57:57.930Z,92.91
2022-10-01T16:00:30.272Z,93.04
2022-10-01T16:02:58.304Z,92.63
2022-10-01T16:05:28.487Z,92.13
2022-10-01T16:07:58.580Z,91.87
2022-10-01T16:10:33.443Z,92.04
2022-10-01T16:13:00.640Z,92.75
2022-10-01T16:15:28.298Z,92.88
2022-10-01T16:18:02.422Z,92.85
2022-10-01T16:20:34.663Z,93.02
2022-10-01T16:23:39.667Z,92.82
2022-10-01T16:26:28.392Z,93.18
2022-10-01T16:28:55.932Z,93.53
2022-10-01T16:31:23.627Z,93.68
2022-10-01T16:33:50.313Z,93.72
2022-10-01T16:36:20.768Z,94.02
2022-10-01T16:38:51.432Z,94.11
2022-10-01T16:41:24.579Z,94.88
2022-10-01T16:43:52.658Z,94.90
2022-10-01T16:46:19.343Z,94.97
2022-10-01T16:48:49.531Z,95.21
2022-10-01T16:51:16.080Z,95.19
2022-10-01T16:53:45.942Z,95.33
2022-10-01T16:56:13.614Z,95.23
2022-10-01T16:58:41.794Z,95.64
2022-10-01T17:01:09.854Z,95.50
2022-10-01T17:03:36.715Z,95.15
2022-10-01T17:06:03.769Z,95.19
2022-10-01T17:08:30.641Z,95.68
2022-10-01T17:11:00.632Z,95.55
2022-10-01T17:13:35.615Z,95.69
2022-10-01T17:16:04.777Z,95.87
2022-10-01T17:18:31.451Z,96.14
2022-10-01T17:20:59.485Z,96.21
2022-10-01T17:23:26.113Z,96.00
2022-10-01T17:25:52.909Z,95.93
2022-10-01T17:28:20.653Z,96.53
2022-10-01T17:30:48.876Z,95.84
2022-10-01T17:33:19.187Z,95.69
2022-10-01T17:35:52.091Z,95.63
2022-10-01T17:38:19.421Z,96.03
2022-10-01T17:40:46.313Z,96.41
2022-10-01T17:43:15.246Z,96.15
2022-10-01T17:45:42.563Z,95.95
2022-10-01T17:48:09.493Z,95.95
2022-10-01T17:50:43.867Z,96.32
2022-10-01T17:53:14.986Z,96.36
2022-10-01T17:55:42.712Z,96.28
2022-10-01T17:58:10.083Z,96.46
2022-10-01T18:00:37.272Z,96.66
2022-10-01T18:03:04.434Z,95.97
2022-10-01T18:05:31.207Z,96.22
2022-10-01T18:07:57.983Z,96.38
2022-10-01T18:10:24.529Z,96.24
2022-10-01T18:12:51.428Z,96.45
2022-10-01T18:15:20.856Z,96.48
2022-10-01T18:17:52.169Z,96.47
2022-10-01T18:20:23.118Z,96.59
2022-10-01T18:22:50.441Z,96.11
2022-10-01T18:25:19.477Z,96.62
2022-10-01T18:27:50.002Z,97.18
2022-10-01T18:30:17.592Z,96.97
2022-10-01T18:32:49.652Z,96.55
2022-10-01T18:35:29.923Z,96.79
2022-10-01T18:38:01.707Z,96.30
2022-10-01T18:40:32.479Z,96.13
2022-10-01T18:43:11.668Z,96.48
2022-10-01T18:45:41.371Z,96.43
2022-10-01T18:48:32.455Z,96.63
2022-10-01T18:51:01.929Z,96.30
2022-10-01T18:53:28.498Z,96.11
2022-10-01T18:56:04.242Z,96.92
2022-10-01T18:59:09.037Z,96.91
2022-10-01T19:01:41.916Z,96.83
2022-10-01T19:04:25.795Z,97.16
2022-10-01T19:07:09.466Z,97.26
2022-10-01T19:09:57.998Z,96.54
2022-10-01T19:12:38.004Z,96.81
2022-10-01T19:15:25.620Z,96.88
2022-10-01T19:18:17.403Z,96.69
2022-10-01T19:21:10.290Z,96.95
2022-10-01T19:24:06.263Z,96.64
2022-10-01T19:26:49.748Z,96.48
2022-10-01T19:29:57.652Z,97.31
2022-10-01T19:32:29.383Z,96.85
2022-10-01T19:35:22.541Z,97.35
2022-10-01T19:37:52.147Z,97.45
2022-10-01T19:40:27.897Z,97.20
2022-10-01T19:43:05.156Z,97.07
2022-10-01T19:46:04.780Z,97.51
2022-10-01T19:48:47.977Z,97.13
2022-10-01T19:51:20.156Z,97.94
2022-10-01T19:53:51.451Z,97.96
2022-10-01T19:56:24.398Z,97.60
2022-10-01T19:58:51.081Z,97.57
2022-10-01T20:01:20.943Z,98.09
2022-10-01T20:04:01.459Z,97.48
2022-10-01T20:06:39.315Z,97.87
2022-10-01T20:09:35.982Z,98.01
2022-10-01T20:12:31.129Z,97.64
2022-10-01T20:15:21.828Z,97.17
2022-10-01T20:18:13.139Z,97.20
2022-10-01T20:21:10.534Z,97.88
2022-10-01T20:23:49.115Z,97.71
2022-10-01T20:26:20.231Z,98.07
2022-10-01T20:29:14.229Z,98.25
2022-10-01T20:32:03.478Z,98.18
2022-10-01T20:34:57.883Z,97.76
2022-10-01T20:37:35.184Z,97.87
2022-10-01T20:40:18.738Z,97.87
2022-10-01T20:42:49.370Z,97.72
2022-10-01T20:45:21.936Z,98.07
2022-10-01T20:48:01.520Z,98.26
2022-10-01T20:50:37.489Z,97.95
2022-10-01T20:53:17.497Z,98.17
2022-10-01T20:55:51.110Z,97.88
2022-10-01T20:58:32.607Z,98.68
2022-10-01T21:01:12.766Z,98.41
2022-10-01T21:03:47.110Z,97.85
2022-10-01T21:06:21.862Z,97.34
2022-10-01T21:08:57.624Z,97.17
2022-10-01T21:11:45.034Z,97.89
2022-10-01T21:14:14.660Z,97.79
2022-10-01T21:16:51.305Z,98.07
2022-10-01T21:19:49.070Z,97.43
2022-10-01T21:22:34.086Z,97.22
2022-10-01T21:25:03.767Z,97.46
2022-10-01T21:27:48.094Z,97.58
2022-10-01T21:30:18.657Z,97.61
2022-10-01T21:32:51.447Z,97.55
2022-10-01T21:35:44.434Z,97.53
2022-10-01T21:38:31.257Z,97.96
2022-10-01T21:41:19.259Z,97.44
2022-10-01T21:44:11.126Z,97.60
2022-10-01T21:46:46.659Z,97.62
2022-10-01T21:49:25.369Z,97.68
2022-10-01T21:51:58.611Z,97.35
2022-10-01T21:54:44.864Z,97.95
2022-10-01T21:57:32.344Z,97.93
2022-10-01T22:00:32.752Z,97.72
2022-10-01T22:03:20.023Z,97.77
2022-10-01T22:05:54.362Z,97.93
2022-10-01T22:08:40.791Z,97.77
2022-10-01T22:11:16.565Z,98.15
2022-10-01T22:13:54.056Z,98.10
2022-10-01T22:16:24.497Z,98.23
2022-10-01T22:19:00.161Z,98.21
2022-10-01T22:21:42.549Z,97.85
2022-10-01T22:24:17.889Z,98.04
2022-10-01T22:27:13.388Z,97.88
2022-10-01T22:29:51.277Z,97.68
2022-10-01T22:32:22.376Z,97.61
2022-10-01T22:34:59.208Z,97.99
2022-10-01T22:37:53.886Z,98.19
2022-10-01T22:40:29.392Z,98.23
2022-10-01T22:43:06.621Z,98.01
2022-10-01T22:46:02.858Z,97.92
2022-10-01T22:48:44.944Z,98.08
2022-10-01T22:51:29.884Z,97.66
2022-10-01T22:54:33.656Z,98.00
2022-10-01T22:57:08.407Z,97.60
2022-10-01T22:59:59.397Z,97.45
2022-10-01T23:02:40.191Z,97.96
2022-10-01T23:05:21.374Z,97.49
2022-10-01T23:08:06.787Z,97.54
2022-10-01T23:10:41.745Z,97.56
2022-10-01T23:13:28.687Z,97.81
2022-10-01T23:16:21.243Z,98.26
2022-10-01T23:19:04.402Z,97.83
2022-10-01T23:21:45.899Z,97.44
2022-10-01T23:24:23.077Z,97.90
2022-10-01T23:27:08.297Z,98.00
2022-10-01T23:29:58.542Z,98.30
2022-10-01T23:32:37.074Z,98.95
2022-10-01T23:35:13.734Z,98.71
2022-10-01T23:37:58.152Z,98.32
2022-10-01T23:40:33.591Z,98.71
2022-10-01T23:43:37.811Z,98.78
2022-10-01T23:46:29.792Z,98.57
2022-10-01T23:49:04.482Z,98.93
2022-10-01T23:51:54.312Z,99.02
2022-10-01T23:54:30.208Z,98.93
2022-10-01T23:57:08.008Z,98.53
2022-10-01T23:59:41.784Z,98.74
